Time;durP1;ratioP1;P1;durP2;ratioP2;P2;SDS_P1;SDS_P2;PMS_P1;PMS_P2;Temp;Humidity;BMP_temperature;BMP_pressure;BME280_temperature;BME280_humidity;BME280_pressure;Samples;Min_cycle;Max_cycle;Signal;HPM_P1;HPM_P2
2023/03/25 00:01:53;;;;;;;1.93;1.07;;;13.20;35.30;;;;;;5034215;28;20190;-76
2023/03/25 00:04:18;;;;;;;2.00;1.20;;;12.70;35.80;;;;;;5032503;28;20257;-72
2023/03/25 00:06:44;;;;;;;2.20;1.33;;;12.70;36.90;;;;;;5034606;28;20177;-68
2023/03/25 00:09:10;;;;;;;2.00;1.20;;;12.90;37.40;;;;;;5031529;28;20182;-68
2023/03/25 00:11:35;;;;;;;2.00;1.20;;;12.90;37.90;;;;;;5034359;28;20454;-69
2023/03/25 00:14:01;;;;;;;2.10;1.20;;;12.50;43.40;;;;;;5034090;28;20238;-68
2023/03/25 00:16:27;;;;;;;2.00;1.10;;;11.30;49.60;;;;;;5034475;28;20204;-71
2023/03/25 00:18:52;;;;;;;2.00;1.10;;;10.20;71.00;;;;;;5034422;28;20173;-68
2023/03/25 00:21:18;;;;;;;2.20;1.40;;;9.70;76.10;;;;;;5032347;28;20207;-72
2023/03/25 00:23:44;;;;;;;2.10;1.20;;;9.50;78.10;;;;;;5033257;28;20569;-69
2023/03/25 00:26:10;;;;;;;2.00;1.10;;;9.80;74.80;;;;;;5034255;28;20185;-68
2023/03/25 00:28:37;;;;;;;2.10;1.20;;;10.20;71.90;;;;;;5033274;28;20177;-70
2023/03/25 00:31:09;;;;;;;2.00;1.20;;;10.40;66.20;;;;;;5032651;28;20183;-69
2023/03/25 00:33:35;;;;;;;2.00;1.10;;;10.20;61.90;;;;;;5015117;28;20566;-68
2023/03/25 00:36:03;;;;;;;2.10;1.20;;;10.30;57.70;;;;;;5033646;28;20574;-68
2023/03/25 00:38:34;;;;;;;2.00;1.10;;;10.00;60.20;;;;;;5034191;28;20176;-68
2023/03/25 00:41:24;;;;;;;2.00;1.10;;;10.40;56.60;;;;;;5032373;28;20439;-70
2023/03/25 00:43:58;;;;;;;2.00;1.10;;;10.30;59.70;;;;;;5029126;28;20474;-69
2023/03/25 00:46:26;;;;;;;2.00;1.10;;;10.30;60.90;;;;;;5033835;28;20419;-69
2023/03/25 00:48:52;;;;;;;2.00;1.10;;;10.40;58.80;;;;;;5015974;28;20260;-69
2023/03/25 00:51:20;;;;;;;2.00;1.10;;;10.50;58.40;;;;;;5033052;28;20408;-70
2023/03/25 00:53:51;;;;;;;2.00;1.13;;;10.60;56.00;;;;;;5030543;28;20584;-69
2023/03/25 00:56:16;;;;;;;2.00;1.10;;;10.50;54.80;;;;;;5033092;28;20936;-70
2023/03/25 00:58:42;;;;;;;2.10;1.20;;;10.70;53.80;;;;;;5033203;28;20565;-70
2023/03/25 01:01:13;;;;;;;1.90;1.10;;;10.90;52.70;;;;;;5032228;28;20207;-70
2023/03/25 01:03:45;;;;;;;1.93;1.10;;;10.60;51.70;;;;;;5029737;28;20207;-69
2023/03/25 01:06:15;;;;;;;2.27;1.50;;;10.80;49.30;;;;;;5015197;28;20469;-70
2023/03/25 01:08:43;;;;;;;1.90;1.10;;;10.70;50.10;;;;;;5013369;28;20420;-70
2023/03/25 01:11:22;;;;;;;1.90;1.10;;;10.80;50.20;;;;;;5023598;28;20416;-70
2023/03/25 01:13:47;;;;;;;2.00;1.20;;;10.90;48.90;;;;;;5031172;28;20969;-69
2023/03/25 01:16:13;;;;;;;2.00;1.10;;;10.60;50.30;;;;;;5032728;28;20435;-70
2023/03/25 01:18:39;;;;;;;2.00;1.10;;;10.90;47.90;;;;;;5033062;28;20668;-70
2023/03/25 01:21:06;;;;;;;1.90;1.10;;;10.90;49.40;;;;;;5015204;28;20177;-70
2023/03/25 01:23:32;;;;;;;2.00;1.20;;;10.60;49.90;;;;;;5032050;28;20212;-70
2023/03/25 01:25:58;;;;;;;1.98;1.20;;;10.50;50.70;;;;;;5032979;28;20924;-70
2023/03/25 01:28:24;;;;;;;1.90;1.10;;;10.60;50.50;;;;;;5032257;28;20177;-69
2023/03/25 01:30:50;;;;;;;2.00;1.10;;;10.60;50.00;;;;;;5033049;28;20503;-70
2023/03/25 01:33:15;;;;;;;1.80;1.10;;;10.60;51.50;;;;;;5032400;28;20327;-69
2023/03/25 01:35:41;;;;;;;1.90;1.13;;;11.00;49.50;;;;;;5030925;28;20446;-70
2023/03/25 01:38:07;;;;;;;1.90;1.10;;;11.00;49.50;;;;;;5032361;28;20563;-69
2023/03/25 01:40:33;;;;;;;1.80;1.00;;;11.00;51.10;;;;;;5031739;28;20420;-70
2023/03/25 01:42:59;;;;;;;1.90;1.10;;;10.80;51.50;;;;;;5032289;28;20435;-69
2023/03/25 01:45:31;;;;;;;2.00;1.20;;;10.80;51.30;;;;;;5031687;28;20198;-69
2023/03/25 01:48:09;;;;;;;2.07;1.27;;;10.70;50.50;;;;;;5031272;28;20244;-69
2023/03/25 01:50:38;;;;;;;2.00;1.20;;;10.60;50.80;;;;;;5031609;28;20441;-70
2023/03/25 01:53:05;;;;;;;2.03;1.20;;;11.00;49.50;;;;;;5032248;28;20500;-70
2023/03/25 01:55:33;;;;;;;2.00;1.20;;;11.10;51.40;;;;;;5032341;28;20937;-69
2023/03/25 01:58:03;;;;;;;1.90;1.10;;;10.80;52.60;;;;;;5032606;28;20422;-69
2023/03/25 02:00:29;;;;;;;2.00;1.30;;;10.40;57.00;;;;;;5030605;28;20450;-69
2023/03/25 02:02:58;;;;;;;2.00;1.17;;;10.40;62.70;;;;;;5031044;28;20786;-70
2023/03/25 02:05:36;;;;;;;2.07;1.30;;;10.60;62.60;;;;;;5032688;28;20419;-69
2023/03/25 02:08:04;;;;;;;1.90;1.10;;;9.90;62.10;;;;;;5032064;28;20398;-70
2023/03/25 02:10:32;;;;;;;2.10;1.20;;;10.00;62.80;;;;;;5031390;28;20422;-70
2023/03/25 02:12:58;;;;;;;1.80;1.10;;;10.10;59.20;;;;;;5030870;28;20516;-69
2023/03/25 02:15:24;;;;;;;1.90;1.00;;;10.10;57.20;;;;;;5032129;28;20496;-70
2023/03/25 02:17:59;;;;;;;2.00;1.10;;;10.30;58.70;;;;;;5032334;28;20208;-69
2023/03/25 02:20:44;;;;;;;2.00;1.10;;;10.00;58.00;;;;;;5031921;28;20399;-69
2023/03/25 02:23:12;;;;;;;2.00;1.20;;;10.20;56.30;;;;;;5030479;28;20475;-70
2023/03/25 02:26:13;;;;;;;2.00;1.20;;;10.40;53.20;;;;;;5013955;28;20915;-70
2023/03/25 02:29:03;;;;;;;2.00;1.10;;;10.50;52.00;;;;;;4970637;28;20253;-70
2023/03/25 02:31:51;;;;;;;2.00;1.15;;;10.20;50.50;;;;;;4970805;28;20186;-69
2023/03/25 02:34:16;;;;;;;1.90;1.00;;;9.80;54.00;;;;;;4969921;28;20261;-70
2023/03/25 02:37:19;;;;;;;2.00;1.20;;;9.70;53.40;;;;;;4970288;28;20434;-69
2023/03/25 02:40:06;;;;;;;1.98;1.10;;;9.80;53.70;;;;;;4969900;28;20652;-69
2023/03/25 02:42:52;;;;;;;1.98;1.17;;;9.80;53.20;;;;;;4969678;28;20342;-69
2023/03/25 02:45:28;;;;;;;2.00;1.10;;;10.20;52.50;;;;;;4970602;28;20241;-70
2023/03/25 02:48:15;;;;;;;2.00;1.10;;;9.40;53.50;;;;;;4970685;28;20641;-72
2023/03/25 02:50:52;;;;;;;1.98;1.10;;;9.70;55.40;;;;;;4969326;28;20202;-72
2023/03/25 02:53:32;;;;;;;1.98;1.10;;;9.70;54.70;;;;;;4969067;28;20747;-71
2023/03/25 02:56:01;;;;;;;1.95;1.20;;;9.80;54.40;;;;;;4970160;28;20158;-72
2023/03/25 02:58:28;;;;;;;2.00;1.10;;;9.60;57.20;;;;;;4971320;28;20674;-72
2023/03/25 03:00:57;;;;;;;2.00;1.20;;;9.70;61.80;;;;;;4976668;28;20212;-72
2023/03/25 03:03:25;;;;;;;3.80;1.70;;;9.90;58.90;;;;;;4976253;28;20485;-70
2023/03/25 03:05:54;;;;;;;2.00;1.17;;;9.70;62.20;;;;;;5029808;28;20517;-71
2023/03/25 03:08:28;;;;;;;1.90;1.10;;;9.30;62.80;;;;;;5031573;28;20176;-71
2023/03/25 03:11:21;;;;;;;1.92;1.10;;;9.60;62.20;;;;;;5029913;28;20210;-71
2023/03/25 03:13:59;;;;;;;2.00;1.20;;;9.60;61.80;;;;;;5029716;28;20218;-72
2023/03/25 03:16:43;;;;;;;2.03;1.23;;;9.20;59.70;;;;;;5030254;28;20207;-72
2023/03/25 03:19:36;;;;;;;1.90;1.10;;;9.10;60.90;;;;;;5031316;28;20165;-72
2023/03/25 03:22:51;;;;;;;2.00;1.20;;;9.20;58.80;;;;;;5019518;28;20245;-72
2023/03/25 03:25:31;;;;;;;1.95;1.10;;;9.50;60.30;;;;;;5027897;28;20741;-71
2023/03/25 03:28:06;;;;;;;2.00;1.20;;;9.60;58.70;;;;;;5029242;28;20199;-73
2023/03/25 03:30:53;;;;;;;1.92;1.13;;;9.50;58.60;;;;;;5030280;28;20184;-72
2023/03/25 03:33:33;;;;;;;2.10;1.30;;;10.20;54.30;;;;;;5019665;28;20220;-71
2023/03/25 03:36:07;;;;;;;1.90;1.10;;;10.40;51.70;;;;;;5029786;28;20525;-72
2023/03/25 03:38:38;;;;;;;1.90;1.10;;;10.60;50.70;;;;;;5030032;28;20204;-72
2023/03/25 03:41:08;;;;;;;1.80;1.08;;;10.70;51.70;;;;;;5030442;28;20297;-72
2023/03/25 03:43:56;;;;;;;2.00;1.20;;;10.70;50.90;;;;;;5026969;28;20211;-71
2023/03/25 03:46:25;;;;;;;1.90;1.10;;;10.40;50.70;;;;;;5029525;28;20552;-71
2023/03/25 03:48:54;;;;;;;1.90;1.10;;;9.80;55.10;;;;;;5030814;28;20284;-73
2023/03/25 03:51:32;;;;;;;1.90;1.10;;;10.20;51.70;;;;;;5030412;28;20676;-73
2023/03/25 03:54:13;;;;;;;2.00;1.10;;;10.20;51.10;;;;;;5028247;28;20204;-73
2023/03/25 03:56:54;;;;;;;2.00;1.15;;;10.20;49.90;;;;;;5010350;28;20215;-71
2023/03/25 03:59:45;;;;;;;1.95;1.10;;;10.40;48.90;;;;;;5030361;28;20748;-72
2023/03/25 04:02:23;;;;;;;2.10;1.30;;;10.60;49.10;;;;;;5027015;28;20188;-71
2023/03/25 04:04:50;;;;;;;1.90;1.10;;;11.00;47.70;;;;;;5027136;28;20200;-73
2023/03/25 04:07:19;;;;;;;2.00;1.20;;;11.30;50.60;;;;;;5034079;28;20179;-72
2023/03/25 04:10:05;;;;;;;1.90;1.10;;;11.20;47.30;;;;;;5033746;28;20208;-72
2023/03/25 04:12:36;;;;;;;1.98;1.10;;;11.20;46.40;;;;;;5030661;28;20274;-69
2023/03/25 04:15:04;;;;;;;2.00;1.20;;;11.20;46.10;;;;;;5028495;28;20689;-71
2023/03/25 04:17:31;;;;;;;1.90;1.08;;;10.90;48.00;;;;;;5032211;28;20920;-72
2023/03/25 04:19:57;;;;;;;1.90;1.20;;;11.20;47.50;;;;;;5013335;28;20187;-70
2023/03/25 04:22:23;;;;;;;1.90;1.10;;;11.60;46.10;;;;;;5020432;28;20524;-71
2023/03/25 04:24:50;;;;;;;2.00;1.20;;;11.00;46.00;;;;;;5033373;28;20204;-71
2023/03/25 04:27:17;;;;;;;1.90;1.15;;;10.90;46.20;;;;;;5016658;28;20168;-71
2023/03/25 04:29:43;;;;;;;1.95;1.20;;;10.70;47.50;;;;;;5034369;28;20183;-71
2023/03/25 04:34:38;;;;;;;2.00;1.20;;;10.20;51.00;;;;;;4988260;28;20505;-71
2023/03/25 04:37:04;;;;;;;1.87;1.07;;;10.60;48.80;;;;;;4996457;28;20440;-71
2023/03/25 04:39:31;;;;;;;1.97;1.10;;;10.10;50.50;;;;;;4999661;28;20420;-70
2023/03/25 04:42:02;;;;;;;2.00;1.20;;;10.10;48.70;;;;;;4996423;28;20252;-70
2023/03/25 04:44:28;;;;;;;1.90;1.10;;;10.20;50.90;;;;;;4972029;28;20465;-71
2023/03/25 04:46:54;;;;;;;1.90;1.10;;;10.30;48.90;;;;;;4975396;28;20448;-70
2023/03/25 04:49:22;;;;;;;1.90;1.10;;;10.10;48.70;;;;;;4975147;28;20442;-70
2023/03/25 04:51:50;;;;;;;1.90;1.10;;;10.10;49.40;;;;;;4975097;28;20428;-70
2023/03/25 04:54:16;;;;;;;1.90;1.10;;;10.20;48.80;;;;;;4973109;28;20943;-71
2023/03/25 04:56:42;;;;;;;2.00;1.20;;;10.00;48.40;;;;;;4974215;28;20521;-70
2023/03/25 04:59:09;;;;;;;2.00;1.20;;;10.20;47.90;;;;;;4974975;28;20509;-69
2023/03/25 05:01:40;;;;;;;1.90;1.20;;;10.20;47.00;;;;;;4975014;28;20171;-71
2023/03/25 05:04:07;;;;;;;2.00;1.20;;;10.00;47.50;;;;;;4974223;28;20552;-70
2023/03/25 05:06:34;;;;;;;2.00;1.13;;;10.20;47.30;;;;;;4971910;28;20449;-71
2023/03/25 05:09:03;;;;;;;1.90;1.10;;;10.20;46.60;;;;;;4974757;28;20418;-70
2023/03/25 05:11:31;;;;;;;2.00;1.20;;;10.10;46.70;;;;;;4974490;28;20406;-70
2023/03/25 05:13:56;;;;;;;2.00;1.20;;;9.90;48.50;;;;;;4973483;28;20468;-70
2023/03/25 05:16:22;;;;;;;1.90;1.13;;;10.20;47.80;;;;;;4977903;28;20433;-71
2023/03/25 05:18:48;;;;;;;2.10;1.27;;;10.70;45.70;;;;;;4983098;28;20181;-71
2023/03/25 05:21:14;;;;;;;1.90;1.10;;;10.80;44.60;;;;;;4982234;28;20258;-71
2023/03/25 05:23:40;;;;;;;1.97;1.17;;;10.60;45.70;;;;;;4993285;28;20465;-71
2023/03/25 05:26:07;;;;;;;2.10;1.30;;;10.80;44.30;;;;;;4979937;28;20537;-71
2023/03/25 05:28:34;;;;;;;1.90;1.10;;;10.70;45.00;;;;;;4973887;28;20969;-70
2023/03/25 05:31:00;;;;;;;2.00;1.20;;;10.40;45.90;;;;;;4974450;28;20405;-71
2023/03/25 05:33:26;;;;;;;1.90;1.13;;;10.20;46.00;;;;;;4973857;28;20816;-71
2023/03/25 05:35:51;;;;;;;2.10;1.30;;;10.80;43.80;;;;;;4974717;28;20650;-70
2023/03/25 05:38:17;;;;;;;1.80;1.10;;;10.70;42.60;;;;;;4971051;28;20241;-70
2023/03/25 05:40:47;;;;;;;1.93;1.20;;;10.70;43.30;;;;;;4973499;28;20194;-69
2023/03/25 05:43:14;;;;;;;1.90;1.20;;;11.00;41.50;;;;;;4973638;28;20501;-69
2023/03/25 05:45:41;;;;;;;1.93;1.20;;;10.80;42.30;;;;;;4974055;28;20426;-71
2023/03/25 05:48:07;;;;;;;1.90;1.10;;;11.00;41.90;;;;;;4972188;28;20429;-70
2023/03/25 05:50:35;;;;;;;1.87;1.10;;;11.30;42.10;;;;;;4973410;28;20445;-71
2023/03/25 05:53:00;;;;;;;2.00;1.30;;;11.30;40.00;;;;;;4972975;28;20438;-74
2023/03/25 05:55:27;;;;;;;1.90;1.20;;;11.50;38.60;;;;;;4973866;28;20414;-75
2023/03/25 05:57:52;;;;;;;1.90;1.20;;;10.90;39.50;;;;;;4971823;28;20718;-74
2023/03/25 06:00:20;;;;;;;1.80;1.10;;;11.10;39.70;;;;;;4972973;28;20509;-75
2023/03/25 06:02:47;;;;;;;2.00;1.20;;;11.20;39.30;;;;;;4971384;28;20199;-74
2023/03/25 06:05:14;;;;;;;2.27;1.20;;;11.10;38.90;;;;;;4972320;28;20520;-69
2023/03/25 06:07:44;;;;;;;1.90;1.20;;;11.20;38.00;;;;;;4967547;28;20449;-68
2023/03/25 06:10:11;;;;;;;1.90;1.20;;;11.00;38.20;;;;;;4973381;28;20417;-69
2023/03/25 06:12:38;;;;;;;1.97;1.20;;;10.90;38.90;;;;;;4965663;28;20456;-70
2023/03/25 06:15:08;;;;;;;1.90;1.20;;;10.70;39.50;;;;;;4969135;28;20426;-70
2023/03/25 06:17:37;;;;;;;1.97;1.20;;;10.80;39.60;;;;;;4973157;28;20453;-70
2023/03/25 06:20:09;;;;;;;1.80;1.10;;;11.10;39.20;;;;;;4970597;28;20448;-70
2023/03/25 06:22:41;;;;;;;1.90;1.20;;;10.70;40.60;;;;;;4972209;28;20464;-69
2023/03/25 06:25:08;;;;;;;1.80;1.10;;;11.10;39.60;;;;;;4971771;28;20528;-71
2023/03/25 06:27:39;;;;;;;1.90;1.20;;;11.50;38.50;;;;;;4972763;28;20496;-68
2023/03/25 06:30:06;;;;;;;1.90;1.13;;;11.50;38.00;;;;;;4981430;28;20507;-70
2023/03/25 06:32:32;;;;;;;1.90;1.10;;;11.40;38.10;;;;;;4994030;28;20453;-69
2023/03/25 06:34:58;;;;;;;1.80;1.10;;;11.00;38.40;;;;;;4972924;28;20456;-70
2023/03/25 06:37:25;;;;;;;2.00;1.20;;;10.40;41.30;;;;;;4972639;28;20182;-70
2023/03/25 06:39:55;;;;;;;1.80;1.10;;;10.80;41.00;;;;;;4971441;28;20241;-69
2023/03/25 06:42:24;;;;;;;1.80;1.10;;;10.90;40.20;;;;;;4985044;28;20413;-70
2023/03/25 06:44:50;;;;;;;1.80;1.10;;;11.10;39.70;;;;;;4991615;28;20460;-71
2023/03/25 06:47:15;;;;;;;1.80;1.10;;;11.30;38.20;;;;;;4973300;28;20442;-71
2023/03/25 06:49:41;;;;;;;1.90;1.17;;;11.30;39.50;;;;;;4971387;28;20178;-71
2023/03/25 06:52:07;;;;;;;1.80;1.10;;;11.40;40.20;;;;;;4977603;28;20183;-70
2023/03/25 06:54:32;;;;;;;1.90;1.20;;;10.90;39.90;;;;;;4985071;28;20190;-70
2023/03/25 06:56:58;;;;;;;1.87;1.17;;;11.20;40.40;;;;;;4986126;28;20189;-70
2023/03/25 06:59:24;;;;;;;1.80;1.10;;;11.30;39.70;;;;;;4981488;28;20186;-68
2023/03/25 07:01:49;;;;;;;1.93;1.20;;;11.30;39.00;;;;;;4977126;28;20550;-70
2023/03/25 07:04:15;;;;;;;1.90;1.20;;;11.50;38.50;;;;;;4986768;28;20569;-70
2023/03/25 07:06:41;;;;;;;1.80;1.20;;;11.90;40.40;;;;;;4978805;28;20242;-70
2023/03/25 07:09:07;;;;;;;1.80;1.10;;;11.90;36.50;;;;;;4977671;28;20555;-70
2023/03/25 07:11:32;;;;;;;1.80;1.10;;;12.00;37.90;;;;;;4975961;28;20198;-70
2023/03/25 07:13:58;;;;;;;1.93;1.20;;;11.90;38.80;;;;;;4976560;28;20202;-69
2023/03/25 07:16:25;;;;;;;1.90;1.20;;;11.60;39.00;;;;;;4976404;28;20425;-69
2023/03/25 07:18:50;;;;;;;1.87;1.17;;;10.90;38.80;;;;;;4976504;28;20182;-70
2023/03/25 07:21:17;;;;;;;1.80;1.10;;;10.60;40.40;;;;;;4978052;28;20430;-70
2023/03/25 07:23:43;;;;;;;1.80;1.10;;;10.70;40.20;;;;;;4973966;28;20690;-70
2023/03/25 07:26:09;;;;;;;1.80;1.10;;;11.20;40.50;;;;;;4976062;28;20410;-70
2023/03/25 07:28:36;;;;;;;1.90;1.20;;;10.80;39.40;;;;;;4975766;28;20653;-70
2023/03/25 07:31:06;;;;;;;1.83;1.20;;;11.00;38.70;;;;;;4976385;28;20480;-69
2023/03/25 07:33:31;;;;;;;1.80;1.20;;;11.00;39.80;;;;;;4971997;28;20477;-70
2023/03/25 07:35:57;;;;;;;1.70;1.07;;;10.80;40.50;;;;;;4974345;28;20482;-70
2023/03/25 07:38:22;;;;;;;2.10;1.30;;;11.20;39.20;;;;;;4976900;28;20193;-70
2023/03/25 07:40:48;;;;;;;1.80;1.10;;;10.60;40.30;;;;;;4979332;28;20194;-70
2023/03/25 07:43:14;;;;;;;1.70;1.00;;;11.00;39.70;;;;;;4976373;28;20205;-69
2023/03/25 07:45:40;;;;;;;1.90;1.20;;;10.90;40.10;;;;;;4977127;28;20191;-70
2023/03/25 07:48:12;;;;;;;1.80;1.10;;;10.60;40.70;;;;;;4979123;28;20921;-71
2023/03/25 07:50:37;;;;;;;1.80;1.10;;;11.10;40.20;;;;;;4979931;28;20257;-70
2023/03/25 07:53:03;;;;;;;1.90;1.20;;;11.00;39.20;;;;;;4980950;28;20486;-69
2023/03/25 07:55:29;;;;;;;1.80;1.10;;;11.30;38.90;;;;;;4974961;28;20552;-71
2023/03/25 07:57:55;;;;;;;1.80;1.10;;;11.40;38.70;;;;;;4975187;28;20662;-68
2023/03/25 08:00:21;;;;;;;1.80;1.20;;;11.60;38.70;;;;;;4988049;28;20646;-70
2023/03/25 08:02:46;;;;;;;1.80;1.20;;;11.90;37.40;;;;;;4982906;28;20488;-69
2023/03/25 08:05:15;;;;;;;1.80;1.13;;;11.60;36.70;;;;;;4975561;28;20224;-70
2023/03/25 08:07:40;;;;;;;1.90;1.20;;;11.90;36.80;;;;;;4984815;28;20213;-68
2023/03/25 08:10:06;;;;;;;1.77;1.10;;;12.60;36.40;;;;;;4983679;28;20468;-69
2023/03/25 08:12:32;;;;;;;1.90;1.20;;;11.90;36.80;;;;;;4979120;28;20264;-69
2023/03/25 08:14:58;;;;;;;1.80;1.20;;;12.10;37.20;;;;;;4981082;28;20487;-70
2023/03/25 08:17:24;;;;;;;1.90;1.10;;;12.00;35.50;;;;;;4984236;28;20743;-70
2023/03/25 08:19:50;;;;;;;1.80;1.10;;;12.20;35.30;;;;;;4985751;28;20475;-70
2023/03/25 08:22:15;;;;;;;1.90;1.20;;;12.10;37.00;;;;;;4974918;28;20192;-69
2023/03/25 08:24:41;;;;;;;1.87;1.20;;;12.10;37.30;;;;;;4977673;28;20199;-70
2023/03/25 08:27:06;;;;;;;1.80;1.13;;;12.60;36.20;;;;;;4976169;28;20718;-70
2023/03/25 08:29:33;;;;;;;1.90;1.20;;;12.40;35.60;;;;;;4978243;28;20256;-70
2023/03/25 08:31:59;;;;;;;1.80;1.27;;;12.60;35.20;;;;;;4978944;28;20245;-70
2023/03/25 08:34:26;;;;;;;1.90;1.20;;;13.10;33.60;;;;;;4974846;28;20971;-70
2023/03/25 08:36:51;;;;;;;1.90;1.20;;;13.50;33.20;;;;;;4977083;28;20172;-70
2023/03/25 08:39:17;;;;;;;1.83;1.17;;;12.90;33.80;;;;;;4977195;28;20933;-69
2023/03/25 08:41:46;;;;;;;1.90;1.20;;;13.00;32.30;;;;;;4976423;28;20198;-70
2023/03/25 08:44:11;;;;;;;1.77;1.10;;;12.70;33.90;;;;;;4977504;28;20705;-69
2023/03/25 08:46:37;;;;;;;1.80;1.33;;;12.90;34.10;;;;;;4977017;28;20408;-70
2023/03/25 08:49:04;;;;;;;2.83;1.60;;;12.70;34.20;;;;;;4977675;28;20176;-70
2023/03/25 08:51:30;;;;;;;1.77;1.20;;;13.10;35.20;;;;;;4975842;28;20444;-70
2023/03/25 08:53:56;;;;;;;1.90;1.20;;;13.10;34.00;;;;;;4976202;28;20458;-70
2023/03/25 08:56:21;;;;;;;1.80;1.13;;;13.50;34.00;;;;;;4976348;28;20763;-69
2023/03/25 08:58:47;;;;;;;1.80;1.10;;;13.70;33.10;;;;;;4980774;28;20170;-70
2023/03/25 09:01:13;;;;;;;1.73;1.10;;;13.50;31.30;;;;;;4977028;28;20181;-70
2023/03/25 09:03:39;;;;;;;1.80;1.17;;;13.00;33.20;;;;;;4971653;28;20766;-69
2023/03/25 09:06:06;;;;;;;1.77;1.10;;;13.10;31.90;;;;;;4976300;28;20170;-70
2023/03/25 09:08:32;;;;;;;1.90;1.30;;;13.50;31.80;;;;;;4976794;28;20493;-68
2023/03/25 09:10:58;;;;;;;1.90;1.20;;;13.70;31.70;;;;;;4975975;28;20994;-70
2023/03/25 09:13:24;;;;;;;1.80;1.20;;;13.40;31.40;;;;;;4973079;28;20854;-70
2023/03/25 09:15:49;;;;;;;1.80;1.10;;;13.20;31.80;;;;;;4975172;28;20422;-70
2023/03/25 09:18:15;;;;;;;1.80;1.10;;;13.00;32.60;;;;;;4973630;28;20273;-70
2023/03/25 09:20:41;;;;;;;1.90;1.20;;;13.80;30.80;;;;;;4974857;28;20185;-70
2023/03/25 09:23:08;;;;;;;2.00;1.20;;;13.80;32.10;;;;;;4974508;28;20583;-70
2023/03/25 09:25:34;;;;;;;2.03;1.40;;;13.70;30.70;;;;;;4974639;28;20254;-70
2023/03/25 09:28:00;;;;;;;1.90;1.20;;;13.80;31.70;;;;;;4975038;28;20410;-70
2023/03/25 09:30:26;;;;;;;1.80;1.10;;;13.30;32.70;;;;;;4973166;28;20461;-70
2023/03/25 09:32:51;;;;;;;1.90;1.20;;;13.50;32.50;;;;;;4974014;28;20210;-70
2023/03/25 09:35:17;;;;;;;2.03;1.40;;;13.20;32.60;;;;;;4974817;28;20673;-70
2023/03/25 09:37:43;;;;;;;1.90;1.20;;;13.70;31.50;;;;;;4957559;28;20210;-68
2023/03/25 09:40:15;;;;;;;2.40;1.50;;;13.90;31.80;;;;;;4972260;28;20186;-69
2023/03/25 09:42:53;;;;;;;1.90;1.17;;;14.20;30.50;;;;;;4973996;28;20449;-70
2023/03/25 09:45:29;;;;;;;1.83;1.13;;;14.00;31.30;;;;;;4974671;28;20527;-69
2023/03/25 09:48:11;;;;;;;1.80;1.10;;;13.60;31.50;;;;;;4974832;28;20476;-70
2023/03/25 09:50:38;;;;;;;2.00;1.33;;;13.80;30.90;;;;;;4956747;28;20433;-70
2023/03/25 09:53:30;;;;;;;1.90;1.20;;;14.40;30.00;;;;;;4974251;28;20450;-70
2023/03/25 09:55:57;;;;;;;1.70;1.10;;;14.50;30.00;;;;;;4974638;28;20438;-70
2023/03/25 09:58:49;;;;;;;1.90;1.30;;;13.70;30.50;;;;;;4974832;28;20434;-70
2023/03/25 10:01:29;;;;;;;1.80;1.10;;;13.80;30.20;;;;;;4971265;28;20457;-70
2023/03/25 10:04:10;;;;;;;1.80;1.10;;;13.60;29.90;;;;;;4964752;28;20501;-69
2023/03/25 10:06:59;;;;;;;1.70;1.10;;;13.60;30.40;;;;;;4975267;28;20768;-70
2023/03/25 10:09:40;;;;;;;1.80;1.20;;;13.80;30.60;;;;;;4975136;28;20765;-70
2023/03/25 10:12:43;;;;;;;1.80;1.10;;;14.00;30.60;;;;;;4971174;28;20956;-70
2023/03/25 10:15:19;;;;;;;1.80;1.13;;;13.50;34.30;;;;;;4970037;28;20441;-70
2023/03/25 10:17:55;;;;;;;1.80;1.20;;;13.70;32.90;;;;;;4975062;28;20514;-70
2023/03/25 10:21:02;;;;;;;1.80;1.20;;;13.40;35.50;;;;;;4974627;28;20410;-70
2023/03/25 10:23:55;;;;;;;1.80;1.20;;;13.70;34.70;;;;;;4951013;28;20985;-70
2023/03/25 10:26:29;;;;;;;1.90;1.20;;;14.20;32.60;;;;;;4977263;28;20493;-70
2023/03/25 10:29:09;;;;;;;1.83;1.10;;;13.20;36.60;;;;;;4975793;28;20413;-70
2023/03/25 10:31:38;;;;;;;1.97;1.30;;;12.60;36.10;;;;;;4975467;28;20428;-70
2023/03/25 10:34:09;;;;;;;1.80;1.10;;;13.30;35.50;;;;;;4972588;28;20471;-70
2023/03/25 10:36:44;;;;;;;1.97;1.30;;;13.20;38.00;;;;;;4974540;28;20407;-70
2023/03/25 10:39:20;;;;;;;1.87;1.13;;;12.00;42.70;;;;;;4976956;28;20938;-70
2023/03/25 10:41:56;;;;;;;1.93;1.10;;;11.80;46.90;;;;;;4975824;28;20418;-71
2023/03/25 10:44:25;;;;;;;2.00;1.10;;;11.20;51.40;;;;;;4972426;28;20482;-70
2023/03/25 10:46:57;;;;;;;2.00;1.20;;;10.70;59.10;;;;;;4976215;28;20426;-70
2023/03/25 10:49:28;;;;;;;2.00;1.20;;;10.90;60.50;;;;;;4975567;28;20426;-70
2023/03/25 10:51:57;;;;;;;1.90;1.10;;;10.60;63.40;;;;;;4977425;28;20399;-70
2023/03/25 10:54:27;;;;;;;1.90;1.10;;;11.10;60.20;;;;;;4974903;28;20863;-68
2023/03/25 10:56:56;;;;;;;1.90;1.20;;;11.90;58.90;;;;;;4976253;28;20949;-70
2023/03/25 10:59:29;;;;;;;1.80;1.10;;;12.70;52.90;;;;;;4975676;28;20428;-70
2023/03/25 11:01:56;;;;;;;1.90;1.20;;;13.00;52.90;;;;;;4975907;28;20909;-70
2023/03/25 11:04:28;;;;;;;1.80;1.20;;;13.90;45.60;;;;;;4973768;28;20539;-70
2023/03/25 11:06:56;;;;;;;1.80;1.20;;;14.00;43.10;;;;;;4974052;28;20440;-70
2023/03/25 11:09:29;;;;;;;1.80;1.10;;;14.40;41.10;;;;;;4975741;28;20426;-70
2023/03/25 11:11:58;;;;;;;1.90;1.20;;;14.40;37.30;;;;;;4973856;28;20476;-71
2023/03/25 11:14:26;;;;;;;1.80;1.20;;;14.30;36.30;;;;;;4975530;28;20540;-70
2023/03/25 11:17:02;;;;;;;1.90;1.20;;;14.10;36.20;;;;;;4975186;28;20420;-70
2023/03/25 11:19:35;;;;;;;1.80;1.20;;;14.10;35.50;;;;;;4975778;28;20459;-70
2023/03/25 11:22:12;;;;;;;1.90;1.30;;;13.50;34.10;;;;;;4973516;28;20438;-70
2023/03/25 11:24:43;;;;;;;1.80;1.20;;;13.30;32.70;;;;;;4973635;28;20472;-69
2023/03/25 11:27:15;;;;;;;1.73;1.10;;;13.40;33.50;;;;;;4974529;28;20780;-70
2023/03/25 11:29:41;;;;;;;1.80;1.10;;;13.20;33.20;;;;;;4974748;28;20409;-70
2023/03/25 11:32:15;;;;;;;1.90;1.20;;;13.00;32.40;;;;;;4974339;28;20779;-68
2023/03/25 11:34:46;;;;;;;1.90;1.20;;;12.70;32.40;;;;;;4972052;28;20268;-70
2023/03/25 11:37:23;;;;;;;1.90;1.10;;;13.00;31.80;;;;;;4972819;28;20418;-69
2023/03/25 11:39:54;;;;;;;1.73;1.10;;;12.50;33.30;;;;;;4973917;28;20490;-69
2023/03/25 11:42:36;;;;;;;1.80;1.17;;;13.40;32.30;;;;;;4956223;28;20807;-70
2023/03/25 11:45:02;;;;;;;1.80;1.20;;;13.50;31.40;;;;;;4971180;28;20479;-69
2023/03/25 11:47:37;;;;;;;1.70;1.10;;;13.70;31.30;;;;;;4974090;28;20441;-70
2023/03/25 11:50:04;;;;;;;1.80;1.20;;;13.40;30.00;;;;;;4973395;28;20823;-73
2023/03/25 11:52:45;;;;;;;1.80;1.20;;;13.00;30.70;;;;;;4973455;28;20426;-66
2023/03/25 11:55:44;;;;;;;1.80;1.20;;;13.40;31.10;;;;;;4972182;28;20453;-70
2023/03/25 11:58:16;;;;;;;1.90;1.27;;;13.80;29.90;;;;;;4969596;28;20934;-70
2023/03/25 12:00:46;;;;;;;1.80;1.20;;;13.50;29.80;;;;;;4973440;28;20402;-70
2023/03/25 12:03:12;;;;;;;1.90;1.30;;;14.00;29.90;;;;;;4972227;28;20481;-70
2023/03/25 12:05:39;;;;;;;1.90;1.23;;;15.50;26.70;;;;;;4973771;28;20903;-70
2023/03/25 12:08:14;;;;;;;1.90;1.20;;;15.80;26.70;;;;;;4970993;28;20190;-70
2023/03/25 12:10:59;;;;;;;2.10;1.30;;;15.50;26.40;;;;;;4973969;28;20418;-70
2023/03/25 12:13:46;;;;;;;2.00;1.20;;;15.80;25.80;;;;;;4972294;28;20448;-69
2023/03/25 12:16:17;;;;;;;2.00;1.20;;;16.00;26.30;;;;;;4972688;28;20786;-70
2023/03/25 12:19:14;;;;;;;2.20;1.30;;;16.00;25.50;;;;;;4972853;28;20477;-70
2023/03/25 12:21:42;;;;;;;2.40;1.30;;;15.60;26.50;;;;;;4973533;28;20401;-71
2023/03/25 12:24:13;;;;;;;2.20;1.30;;;16.70;25.20;;;;;;4974001;28;20459;-71
2023/03/25 12:27:10;;;;;;;2.50;1.30;;;18.20;24.30;;;;;;4975871;28;20940;-70
2023/03/25 12:29:41;;;;;;;2.70;1.20;;;18.70;21.60;;;;;;4975910;28;20447;-69
2023/03/25 12:32:25;;;;;;;2.57;1.23;;;16.80;23.70;;;;;;4975679;28;20438;-68
2023/03/25 12:35:14;;;;;;;2.40;1.30;;;15.20;26.70;;;;;;4969358;28;20623;-70
2023/03/25 12:37:55;;;;;;;2.10;1.20;;;14.50;28.10;;;;;;4976929;28;20481;-70
2023/03/25 12:40:48;;;;;;;1.97;1.17;;;14.10;29.70;;;;;;4975637;28;20394;-70
2023/03/25 12:43:50;;;;;;;1.90;1.10;;;13.40;32.40;;;;;;4971424;28;20810;-69
2023/03/25 12:46:58;;;;;;;2.00;1.20;;;12.40;37.20;;;;;;4971487;28;20429;-70
2023/03/25 12:50:07;;;;;;;2.00;1.27;;;12.20;37.50;;;;;;4964876;28;20440;-67
2023/03/25 12:52:55;;;;;;;1.90;1.20;;;13.10;33.90;;;;;;4973356;28;20454;-70
2023/03/25 12:55:31;;;;;;;2.10;1.30;;;15.60;28.30;;;;;;4975299;28;20423;-70
2023/03/25 12:58:15;;;;;;;2.20;1.20;;;17.40;25.70;;;;;;4975413;28;20429;-71
2023/03/25 13:00:49;;;;;;;2.30;1.20;;;17.80;24.40;;;;;;4975213;28;20850;-70
2023/03/25 13:03:50;;;;;;;2.43;1.30;;;18.20;23.80;;;;;;4972899;28;20472;-70
2023/03/25 13:06:16;;;;;;;2.60;1.20;;;17.80;24.80;;;;;;4959703;28;20430;-70
2023/03/25 13:08:50;;;;;;;2.87;1.20;;;18.30;24.00;;;;;;4973710;28;20609;-70
2023/03/25 13:11:44;;;;;;;2.80;1.20;;;17.80;24.40;;;;;;4975680;28;20173;-69
2023/03/25 13:14:24;;;;;;;2.70;1.20;;;15.40;27.90;;;;;;4960281;28;20480;-70